createdAt,value
2018-01-17T00:00:27.748Z,97668
2018-01-17T00:01:32.944Z,97662
2018-01-17T00:02:38.479Z,97665
2018-01-17T00:03:44.205Z,97662
2018-01-17T00:04:49.416Z,97678
2018-01-17T00:05:54.889Z,97665
2018-01-17T00:07:00.339Z,97670
2018-01-17T00:08:05.539Z,97656
2018-01-17T00:09:10.451Z,97667
2018-01-17T00:10:15.891Z,97673
2018-01-17T00:11:21.376Z,97665
2018-01-17T00:12:27.294Z,97684
2018-01-17T00:13:32.840Z,97668
2018-01-17T00:14:38.389Z,97662
2018-01-17T00:15:44.099Z,97667
2018-01-17T00:16:49.581Z,97656
2018-01-17T00:17:54.782Z,97647
2018-01-17T00:19:00.045Z,97653
2018-01-17T00:20:05.525Z,97644
2018-01-17T00:21:10.453Z,97650
2018-01-17T00:22:16.213Z,97641
2018-01-17T00:23:21.685Z,97641
2018-01-17T00:24:27.032Z,97644
2018-01-17T00:25:32.532Z,97641
2018-01-17T00:26:37.999Z,97638
2018-01-17T00:27:43.564Z,97641
2018-01-17T00:28:49.036Z,97641
2018-01-17T00:29:54.235Z,97641
2018-01-17T00:30:59.670Z,97641
2018-01-17T00:32:05.140Z,97635
2018-01-17T00:33:10.329Z,97632
2018-01-17T00:34:15.981Z,97632
2018-01-17T00:35:21.178Z,97630
2018-01-17T00:36:27.015Z,97627
2018-01-17T00:37:32.209Z,97630
2018-01-17T00:38:37.397Z,97621
2018-01-17T00:39:42.572Z,97632
2018-01-17T00:40:47.763Z,97627
2018-01-17T00:41:52.644Z,97624
2018-01-17T00:42:58.516Z,97621
2018-01-17T00:44:03.725Z,97627
2018-01-17T00:45:08.908Z,97615
2018-01-17T00:46:13.766Z,97618
2018-01-17T00:47:19.234Z,97618
2018-01-17T00:48:39.687Z,97615
2018-01-17T00:49:45.175Z,97603
2018-01-17T00:50:50.097Z,97606
2018-01-17T00:51:55.821Z,97609
2018-01-17T00:53:00.991Z,97615
2018-01-17T00:54:06.460Z,97609
2018-01-17T00:55:12.272Z,97606
2018-01-17T00:56:17.453Z,97603
2018-01-17T00:57:22.065Z,97597
2018-01-17T00:58:28.199Z,97600
2018-01-17T00:59:33.680Z,97597
2018-01-17T01:00:39.584Z,97592
2018-01-17T01:01:45.051Z,97595
2018-01-17T01:02:50.237Z,97595
2018-01-17T01:03:55.782Z,97594
2018-01-17T01:05:01.248Z,97589
2018-01-17T01:06:06.743Z,97583
2018-01-17T01:07:12.187Z,97586
2018-01-17T01:08:17.654Z,97589
2018-01-17T01:09:22.840Z,97586
2018-01-17T01:10:43.251Z,97586
2018-01-17T01:11:48.416Z,97580
2018-01-17T01:12:53.869Z,97577
2018-01-17T01:13:59.317Z,97586
2018-01-17T01:15:04.784Z,97589
2018-01-17T01:16:10.486Z,97589
2018-01-17T01:17:16.005Z,97586
2018-01-17T01:18:21.467Z,97586
2018-01-17T01:19:41.296Z,97589
2018-01-17T01:20:46.536Z,97586
2018-01-17T01:21:51.676Z,97583
2018-01-17T01:22:57.144Z,97580
2018-01-17T01:24:02.627Z,97577
2018-01-17T01:25:08.157Z,97583
2018-01-17T01:26:13.658Z,97571
2018-01-17T01:27:18.834Z,97568
2018-01-17T01:28:24.319Z,97577
2018-01-17T01:29:29.202Z,97568
2018-01-17T01:30:35.098Z,97577
2018-01-17T01:31:40.554Z,97583
2018-01-17T01:32:45.760Z,97583
2018-01-17T01:33:50.702Z,97577
2018-01-17T01:34:55.050Z,97574
2018-01-17T01:36:00.489Z,97574
2018-01-17T01:37:06.210Z,97565
2018-01-17T01:38:11.663Z,97571
2018-01-17T01:39:16.839Z,97568
2018-01-17T01:40:22.549Z,97568
2018-01-17T01:41:27.996Z,97574
2018-01-17T01:42:33.979Z,97565
2018-01-17T01:43:39.168Z,97577
2018-01-17T01:44:44.344Z,97562
2018-01-17T01:45:50.332Z,97571
2018-01-17T01:46:55.807Z,97571
2018-01-17T01:48:00.966Z,97565
2018-01-17T01:49:06.221Z,97565
2018-01-17T01:50:11.108Z,97565
2018-01-17T01:51:16.570Z,97568
2018-01-17T01:52:22.326Z,97562
2018-01-17T01:53:27.786Z,97565
2018-01-17T01:54:33.235Z,97562
2018-01-17T01:55:38.410Z,97560
2018-01-17T01:56:43.876Z,97551
2018-01-17T01:57:48.448Z,97560
2018-01-17T01:58:53.615Z,97548
2018-01-17T01:59:59.074Z,97557
2018-01-17T02:01:04.492Z,97542
2018-01-17T02:02:09.126Z,97542
2018-01-17T02:03:14.554Z,97536
2018-01-17T02:04:20.380Z,97542
2018-01-17T02:05:25.314Z,97539
2018-01-17T02:06:31.057Z,97526
2018-01-17T02:07:36.257Z,97529
2018-01-17T02:08:41.597Z,97529
2018-01-17T02:09:47.413Z,97526
2018-01-17T02:10:52.598Z,97532
2018-01-17T02:11:57.786Z,97533
2018-01-17T02:13:03.509Z,97526
2018-01-17T02:14:09.001Z,97526
2018-01-17T02:15:14.204Z,97531
2018-01-17T02:16:19.686Z,97532
2018-01-17T02:17:24.862Z,97520
2018-01-17T02:18:30.831Z,97526
2018-01-17T02:19:36.007Z,97520
2018-01-17T02:20:41.184Z,97526
2018-01-17T02:21:46.629Z,97514
2018-01-17T02:22:51.247Z,97517
2018-01-17T02:23:56.716Z,97514
2018-01-17T02:25:02.730Z,97520
2018-01-17T02:26:07.889Z,97531
2018-01-17T02:27:13.074Z,97533
2018-01-17T02:28:18.774Z,97533
2018-01-17T02:29:23.410Z,97526
2018-01-17T02:30:29.053Z,97545
2018-01-17T02:31:34.570Z,97542
2018-01-17T02:32:39.749Z,97539
2018-01-17T02:33:45.460Z,97531
2018-01-17T02:34:50.366Z,97536
2018-01-17T02:35:55.548Z,97520
2018-01-17T02:37:01.374Z,97545
2018-01-17T02:38:06.849Z,97523
2018-01-17T02:39:12.326Z,97529
2018-01-17T02:40:18.034Z,97533
2018-01-17T02:41:23.265Z,97531
2018-01-17T02:42:29.087Z,97531
2018-01-17T02:43:34.565Z,97529
2018-01-17T02:44:40.026Z,97526
2018-01-17T02:45:45.186Z,97539
2018-01-17T02:46:50.643Z,97533
2018-01-17T02:47:56.086Z,97531
2018-01-17T02:49:01.795Z,97536
2018-01-17T02:50:06.720Z,97533
2018-01-17T02:51:11.940Z,97533
2018-01-17T02:52:17.240Z,97533
2018-01-17T02:53:22.714Z,97539
2018-01-17T02:54:28.536Z,97529
2018-01-17T02:55:33.997Z,97539
2018-01-17T02:56:39.467Z,97520
2018-01-17T02:57:44.932Z,97533
2018-01-17T02:58:50.419Z,97548
2018-01-17T02:59:55.897Z,97548
2018-01-17T03:01:01.353Z,97539
2018-01-17T03:02:06.517Z,97531
2018-01-17T03:03:12.008Z,97529
2018-01-17T03:04:17.817Z,97526
2018-01-17T03:05:23.320Z,97531
2018-01-17T03:06:29.272Z,97526
2018-01-17T03:07:34.493Z,97536
2018-01-17T03:08:39.952Z,97531
2018-01-17T03:09:45.667Z,97531
2018-01-17T03:10:50.562Z,97539
2018-01-17T03:11:55.756Z,97559
2018-01-17T03:13:01.462Z,97548
2018-01-17T03:14:06.658Z,97545
2018-01-17T03:15:12.150Z,97556
2018-01-17T03:16:17.590Z,97557
2018-01-17T03:17:22.751Z,97565
2018-01-17T03:18:29.559Z,97571
2018-01-17T03:19:35.070Z,97565
2018-01-17T03:20:40.228Z,97577
2018-01-17T03:21:45.966Z,97583
2018-01-17T03:22:50.842Z,97580
2018-01-17T03:23:56.317Z,97574
2018-01-17T03:25:01.854Z,97586
2018-01-17T03:26:07.063Z,97577
2018-01-17T03:27:12.536Z,97588
2018-01-17T03:28:18.370Z,97594
2018-01-17T03:29:23.593Z,97583
2018-01-17T03:30:28.980Z,97586
2018-01-17T03:31:34.428Z,97586
2018-01-17T03:32:39.888Z,97588
2018-01-17T03:33:45.310Z,97597
2018-01-17T03:34:50.221Z,97600
2018-01-17T03:35:55.440Z,97606
2018-01-17T03:37:01.150Z,97615
2018-01-17T03:38:06.075Z,97620
2018-01-17T03:39:11.547Z,97629
2018-01-17T03:40:17.347Z,97623
2018-01-17T03:41:22.859Z,97635
2018-01-17T03:42:31.781Z,97635
2018-01-17T03:43:36.973Z,97623
2018-01-17T03:44:42.427Z,97629
2018-01-17T03:45:47.850Z,97629
2018-01-17T03:46:53.012Z,97617
2018-01-17T03:47:58.174Z,97629
2018-01-17T03:49:03.718Z,97623
2018-01-17T03:50:09.160Z,97620
2018-01-17T03:51:14.643Z,97626
2018-01-17T03:52:20.268Z,97620
2018-01-17T03:53:25.758Z,97626
2018-01-17T03:54:31.547Z,97638
2018-01-17T03:55:37.005Z,97641
2018-01-17T03:56:42.469Z,97629
2018-01-17T03:57:48.629Z,97644
2018-01-17T03:58:53.846Z,97652
2018-01-17T03:59:59.310Z,97641
2018-01-17T04:01:04.461Z,97641
2018-01-17T04:02:09.407Z,97652
2018-01-17T04:03:14.867Z,97667
2018-01-17T04:04:20.724Z,97661
2018-01-17T04:05:26.224Z,97658
2018-01-17T04:06:32.077Z,97649
2018-01-17T04:07:37.540Z,97655
2018-01-17T04:08:43.010Z,97652
2018-01-17T04:09:48.512Z,97655
2018-01-17T04:10:53.703Z,97658
2018-01-17T04:11:58.591Z,97664
2018-01-17T04:13:04.602Z,97658
2018-01-17T04:14:09.768Z,97664
2018-01-17T04:15:14.939Z,97670
2018-01-17T04:16:20.662Z,97667
2018-01-17T04:17:26.178Z,97670
2018-01-17T04:18:31.841Z,97674
2018-01-17T04:19:36.762Z,97680
2018-01-17T04:20:42.227Z,97664
2018-01-17T04:21:47.656Z,97673
2018-01-17T04:22:52.864Z,97674
2018-01-17T04:23:58.302Z,97677
2018-01-17T04:25:04.006Z,97664
2018-01-17T04:26:09.489Z,97673
2018-01-17T04:27:14.679Z,97686
2018-01-17T04:28:19.849Z,97683
2018-01-17T04:29:25.061Z,97683
2018-01-17T04:30:30.096Z,97686
2018-01-17T04:31:35.272Z,97686
2018-01-17T04:32:40.447Z,97689
2018-01-17T04:33:46.261Z,97701
2018-01-17T04:34:51.183Z,97689
2018-01-17T04:35:56.676Z,97695
2018-01-17T04:37:02.472Z,97698
2018-01-17T04:38:07.947Z,97698
2018-01-17T04:39:13.416Z,97692
2018-01-17T04:40:19.634Z,97692
2018-01-17T04:41:25.131Z,97704
2018-01-17T04:42:30.851Z,97686
2018-01-17T04:43:36.308Z,97689
2018-01-17T04:44:41.782Z,97680
2018-01-17T04:45:47.512Z,97695
2018-01-17T04:46:52.971Z,97680
2018-01-17T04:47:58.136Z,97692
2018-01-17T04:49:04.116Z,97692
2018-01-17T04:50:09.609Z,97689
2018-01-17T04:51:14.798Z,97686
2018-01-17T04:52:20.545Z,97683
2018-01-17T04:53:25.452Z,97695
2018-01-17T04:54:30.908Z,97695
2018-01-17T04:55:36.372Z,97709
2018-01-17T04:56:41.589Z,97704
2018-01-17T04:57:47.009Z,97707
2018-01-17T04:58:51.893Z,97721
2018-01-17T04:59:57.359Z,97715
2018-01-17T05:01:02.499Z,97709
2018-01-17T05:02:08.165Z,97709
2018-01-17T05:03:13.628Z,97712
2018-01-17T05:04:19.191Z,97721
2018-01-17T05:05:24.661Z,97727
2018-01-17T05:06:29.973Z,97718
2018-01-17T05:07:35.464Z,97715
2018-01-17T05:08:40.933Z,97718
2018-01-17T05:09:46.657Z,97715
2018-01-17T05:10:51.268Z,97712
2018-01-17T05:11:56.708Z,97718
2018-01-17T05:13:02.414Z,97724
2018-01-17T05:14:07.864Z,97718
2018-01-17T05:15:13.055Z,97718
2018-01-17T05:16:18.747Z,97724
2018-01-17T05:17:24.213Z,97724
2018-01-17T05:18:40.246Z,97721
2018-01-17T05:19:45.491Z,97724
2018-01-17T05:20:50.110Z,97741
2018-01-17T05:21:55.348Z,97736
2018-01-17T05:23:00.521Z,97744
2018-01-17T05:24:05.129Z,97742
2018-01-17T05:25:10.854Z,97733
2018-01-17T05:26:16.306Z,97741
2018-01-17T05:27:21.770Z,97747
2018-01-17T05:28:27.536Z,97744
2018-01-17T05:29:33.044Z,97744
2018-01-17T05:30:38.956Z,97742
2018-01-17T05:31:44.123Z,97747
2018-01-17T05:32:49.338Z,97747
2018-01-17T05:33:54.766Z,97747
2018-01-17T05:35:00.220Z,97747
2018-01-17T05:36:05.435Z,97742
2018-01-17T05:37:10.993Z,97744
2018-01-17T05:38:16.207Z,97750
2018-01-17T05:39:21.397Z,97750
2018-01-17T05:40:27.188Z,97759
2018-01-17T05:41:32.400Z,97756
2018-01-17T05:42:38.216Z,97753
2018-01-17T05:43:43.691Z,97759
2018-01-17T05:44:48.898Z,97753
2018-01-17T05:45:54.626Z,97750
2018-01-17T05:47:00.113Z,97756
2018-01-17T05:48:05.652Z,97762
2018-01-17T05:49:10.507Z,97753
2018-01-17T05:50:15.980Z,97750
2018-01-17T05:51:21.455Z,97762
2018-01-17T05:52:26.983Z,97770
2018-01-17T05:53:32.228Z,97756
2018-01-17T05:54:38.049Z,97750
2018-01-17T05:55:43.523Z,97750
2018-01-17T05:56:49.028Z,97756
2018-01-17T05:57:54.226Z,97767
2018-01-17T05:58:59.133Z,97762
2018-01-17T06:00:04.333Z,97770
2018-01-17T06:01:10.145Z,97767
2018-01-17T06:02:15.617Z,97778
2018-01-17T06:03:20.775Z,97778
2018-01-17T06:04:26.822Z,97773
2018-01-17T06:05:32.308Z,97778
2018-01-17T06:06:37.464Z,97778
2018-01-17T06:07:42.919Z,97778
2018-01-17T06:08:48.411Z,97784
2018-01-17T06:09:53.570Z,97776
2018-01-17T06:10:59.044Z,97781
2018-01-17T06:12:04.235Z,97790
2018-01-17T06:13:09.676Z,97784
2018-01-17T06:14:14.579Z,97787
2018-01-17T06:15:20.052Z,97790
2018-01-17T06:16:25.824Z,97793
2018-01-17T06:17:31.007Z,97790
2018-01-17T06:18:36.326Z,97796
2018-01-17T06:19:41.784Z,97796
2018-01-17T06:20:46.967Z,97805
2018-01-17T06:21:52.168Z,97793
2018-01-17T06:22:57.670Z,97813
2018-01-17T06:24:03.158Z,97807
2018-01-17T06:25:08.958Z,97807
2018-01-17T06:26:14.520Z,97819
2018-01-17T06:27:20.006Z,97808
2018-01-17T06:28:25.711Z,97819
2018-01-17T06:29:31.198Z,97813
2018-01-17T06:30:36.939Z,97816
2018-01-17T06:31:42.409Z,97811
2018-01-17T06:32:47.882Z,97828
2018-01-17T06:33:53.026Z,97834
2018-01-17T06:34:58.695Z,97831
2018-01-17T06:36:04.143Z,97825
2018-01-17T06:37:09.645Z,97828
2018-01-17T06:38:15.146Z,97834
2018-01-17T06:39:20.621Z,97828
2018-01-17T06:40:41.014Z,97844
2018-01-17T06:41:46.489Z,97831
2018-01-17T06:42:52.228Z,97834
2018-01-17T06:43:57.428Z,97837
2018-01-17T06:45:02.602Z,97847
2018-01-17T06:46:08.028Z,97840
2018-01-17T06:47:13.207Z,97844
2018-01-17T06:48:18.658Z,97853
2018-01-17T06:49:24.200Z,97859
2018-01-17T06:50:29.697Z,97850
2018-01-17T06:51:35.020Z,97862
2018-01-17T06:52:40.178Z,97853
2018-01-17T06:53:45.679Z,97859
2018-01-17T06:54:50.979Z,97844
2018-01-17T06:55:56.174Z,97856
2018-01-17T06:57:01.655Z,97865
2018-01-17T06:58:06.528Z,97850
2018-01-17T06:59:12.004Z,97868
2018-01-17T07:00:17.167Z,97868
2018-01-17T07:01:22.706Z,97868
2018-01-17T07:02:27.902Z,97876
2018-01-17T07:03:33.328Z,97870
2018-01-17T07:04:38.501Z,97870
2018-01-17T07:05:43.131Z,97862
2018-01-17T07:06:48.551Z,97873
2018-01-17T07:07:53.733Z,97876
2018-01-17T07:08:59.198Z,97882
2018-01-17T07:10:04.660Z,97888
2018-01-17T07:11:09.816Z,97885
2018-01-17T07:12:15.008Z,97894
2018-01-17T07:13:20.155Z,97894
2018-01-17T07:14:25.064Z,97897
2018-01-17T07:15:30.789Z,97891
2018-01-17T07:16:35.689Z,97900
2018-01-17T07:17:40.859Z,97908
2018-01-17T07:18:46.113Z,97905
2018-01-17T07:19:50.689Z,97911
2018-01-17T07:20:55.619Z,97900
2018-01-17T07:22:01.354Z,97923
2018-01-17T07:23:06.138Z,97917
2018-01-17T07:24:11.633Z,97923
2018-01-17T07:25:17.359Z,97900
2018-01-17T07:26:22.517Z,97911
2018-01-17T07:27:28.066Z,97929
2018-01-17T07:28:33.568Z,97923
2018-01-17T07:29:39.035Z,97923
2018-01-17T07:30:44.856Z,97949
2018-01-17T07:31:49.736Z,97949
2018-01-17T07:32:54.927Z,97943
2018-01-17T07:34:00.742Z,97943
2018-01-17T07:35:05.913Z,97952
2018-01-17T07:36:11.083Z,97940
2018-01-17T07:37:16.307Z,97940
2018-01-17T07:38:21.762Z,97946
2018-01-17T07:39:27.879Z,97952
2018-01-17T07:40:33.360Z,97958
2018-01-17T07:41:38.855Z,97963
2018-01-17T07:42:44.297Z,97963
2018-01-17T07:43:49.749Z,97952
2018-01-17T07:44:54.638Z,97963
2018-01-17T07:46:00.349Z,97964
2018-01-17T07:47:05.506Z,97975
2018-01-17T07:48:10.335Z,97966
2018-01-17T07:49:16.130Z,97975
2018-01-17T07:50:21.619Z,97969
2018-01-17T07:51:27.153Z,97975
2018-01-17T07:52:32.055Z,97989
2018-01-17T07:53:37.528Z,97986
2018-01-17T07:54:43.040Z,97992
2018-01-17T07:55:48.508Z,97997
2018-01-17T07:56:53.685Z,98000
2018-01-17T07:57:59.394Z,97986
2018-01-17T07:59:04.868Z,97994
2018-01-17T08:00:09.784Z,97997
2018-01-17T08:01:15.222Z,98006
2018-01-17T08:02:20.877Z,98009
2018-01-17T08:03:26.143Z,98012
2018-01-17T08:04:31.635Z,98003
2018-01-17T08:05:37.524Z,98003
2018-01-17T08:06:43.170Z,98006
2018-01-17T08:07:48.677Z,98003
2018-01-17T08:08:53.898Z,98012
2018-01-17T08:09:59.760Z,98015
2018-01-17T08:11:05.271Z,98018
2018-01-17T08:12:10.198Z,98018
2018-01-17T08:13:15.684Z,98012
2018-01-17T08:14:21.164Z,98015
2018-01-17T08:15:26.994Z,98015
2018-01-17T08:16:32.486Z,98023
2018-01-17T08:17:37.389Z,98023
2018-01-17T08:18:42.897Z,98023
2018-01-17T08:19:48.577Z,98037
2018-01-17T08:20:53.779Z,98028
2018-01-17T08:21:59.612Z,98037
2018-01-17T08:23:04.785Z,98034
2018-01-17T08:24:10.224Z,98028
2018-01-17T08:25:16.061Z,98031
2018-01-17T08:26:21.557Z,98054
2018-01-17T08:27:27.224Z,98046
2018-01-17T08:28:32.589Z,98040
2018-01-17T08:29:37.718Z,98043
2018-01-17T08:30:42.856Z,98046
2018-01-17T08:31:48.334Z,98052
2018-01-17T08:32:53.528Z,98055
2018-01-17T08:33:59.718Z,98057
2018-01-17T08:35:05.193Z,98063
2018-01-17T08:36:10.402Z,98057
2018-01-17T08:37:15.816Z,98069
2018-01-17T08:38:21.331Z,98075
2018-01-17T08:39:26.801Z,98075
2018-01-17T08:40:31.719Z,98072
2018-01-17T08:41:36.617Z,98089
2018-01-17T08:42:42.668Z,98083
2018-01-17T08:43:47.573Z,98081
2018-01-17T08:44:53.018Z,98078
2018-01-17T08:45:58.194Z,98086
2018-01-17T08:47:03.649Z,98081
2018-01-17T08:48:09.397Z,98095
2018-01-17T08:49:14.847Z,98086
2018-01-17T08:50:20.336Z,98089
2018-01-17T08:51:40.737Z,98089
2018-01-17T08:52:46.207Z,98095
2018-01-17T08:53:50.837Z,98101
2018-01-17T08:54:56.066Z,98086
2018-01-17T08:56:01.603Z,98098
2018-01-17T08:57:05.950Z,98098
2018-01-17T08:58:11.436Z,98104
2018-01-17T08:59:16.600Z,98112
2018-01-17T09:00:21.786Z,98109
2018-01-17T09:01:27.118Z,98115
2018-01-17T09:02:32.127Z,98109
2018-01-17T09:03:37.360Z,98110
2018-01-17T09:04:42.952Z,98118
2018-01-17T09:05:48.400Z,98115
2018-01-17T09:06:53.851Z,98104
2018-01-17T09:07:59.633Z,98112
2018-01-17T09:09:05.133Z,98112
2018-01-17T09:10:10.577Z,98098
2018-01-17T09:11:15.503Z,98118
2018-01-17T09:12:21.198Z,98115
2018-01-17T09:13:41.768Z,98121
2018-01-17T09:14:47.241Z,98115
2018-01-17T09:15:52.485Z,98115
2018-01-17T09:16:57.938Z,98113
2018-01-17T09:18:03.118Z,98115
2018-01-17T09:19:08.938Z,98127
2018-01-17T09:20:13.817Z,98141
2018-01-17T09:21:19.299Z,98138
2018-01-17T09:22:24.967Z,98139
2018-01-17T09:23:30.174Z,98150
2018-01-17T09:24:35.882Z,98147
2018-01-17T09:25:41.067Z,98156
2018-01-17T09:26:46.523Z,98141
2018-01-17T09:27:51.694Z,98164
2018-01-17T09:28:57.164Z,98142
2018-01-17T09:30:02.349Z,98144
2018-01-17T09:31:07.220Z,98161
2018-01-17T09:32:12.094Z,98150
2018-01-17T09:33:17.481Z,98150
2018-01-17T09:34:23.248Z,98158
2018-01-17T09:35:28.740Z,98158
2018-01-17T09:36:34.441Z,98172
2018-01-17T09:37:39.333Z,98175
2018-01-17T09:38:44.549Z,98178
2018-01-17T09:39:50.083Z,98178
2018-01-17T09:40:54.984Z,98190
2018-01-17T09:42:00.194Z,98184
2018-01-17T09:43:05.614Z,98201
2018-01-17T09:44:09.969Z,98193
2018-01-17T09:45:15.431Z,98199
2018-01-17T09:46:21.304Z,98199
2018-01-17T09:47:26.976Z,98207
2018-01-17T09:48:32.920Z,98207
2018-01-17T09:49:38.403Z,98216
2018-01-17T09:50:43.304Z,98213
2018-01-17T09:51:48.690Z,98219
2018-01-17T09:52:53.895Z,98222
2018-01-17T09:53:59.386Z,98222
2018-01-17T09:55:05.201Z,98224
2018-01-17T09:56:10.560Z,98230
2018-01-17T09:57:15.758Z,98225
2018-01-17T09:58:21.455Z,98233
2018-01-17T09:59:26.662Z,98227
2018-01-17T10:00:32.116Z,98242
2018-01-17T10:01:36.998Z,98236
2018-01-17T10:02:42.483Z,98230
2018-01-17T10:03:48.104Z,98242
2018-01-17T10:04:53.583Z,98236
2018-01-17T10:05:59.052Z,98251
2018-01-17T10:07:04.922Z,98245
2018-01-17T10:08:10.125Z,98248
2018-01-17T10:09:15.656Z,98259
2018-01-17T10:10:20.806Z,98248
2018-01-17T10:11:26.283Z,98254
2018-01-17T10:12:31.722Z,98251
2018-01-17T10:13:36.615Z,98265
2018-01-17T10:14:41.804Z,98265
2018-01-17T10:15:47.338Z,98262
2018-01-17T10:16:52.728Z,98265
2018-01-17T10:17:58.212Z,98279
2018-01-17T10:19:03.958Z,98271
2018-01-17T10:20:09.514Z,98268
2018-01-17T10:21:14.698Z,98265
2018-01-17T10:22:20.137Z,98268
2018-01-17T10:23:24.746Z,98279
2018-01-17T10:24:30.632Z,98282
2018-01-17T10:25:36.104Z,98281
2018-01-17T10:26:41.311Z,98284
2018-01-17T10:27:46.739Z,98281
2018-01-17T10:28:52.045Z,98284
2018-01-17T10:29:56.409Z,98281
2018-01-17T10:31:02.029Z,98292
2018-01-17T10:32:07.447Z,98289
2018-01-17T10:33:12.929Z,98289
2018-01-17T10:34:18.831Z,98303
2018-01-17T10:35:24.326Z,98298
2018-01-17T10:36:30.048Z,98300
2018-01-17T10:37:35.494Z,98294
2018-01-17T10:38:40.957Z,98294
2018-01-17T10:39:46.404Z,98300
2018-01-17T10:40:51.293Z,98306
2018-01-17T10:41:56.973Z,98300
2018-01-17T10:43:02.668Z,98305
2018-01-17T10:44:08.133Z,98299
2018-01-17T10:45:13.374Z,98299
2018-01-17T10:46:19.104Z,98308
2018-01-17T10:47:24.597Z,98308
2018-01-17T10:48:30.608Z,98311
2018-01-17T10:49:36.277Z,98308
2018-01-17T10:50:41.486Z,98313
2018-01-17T10:51:47.202Z,98305
2018-01-17T10:52:52.679Z,98310
2018-01-17T10:53:57.896Z,98310
2018-01-17T10:55:03.042Z,98310
2018-01-17T10:56:07.967Z,98304
2018-01-17T10:57:13.126Z,98316
2018-01-17T10:58:18.616Z,98321
2018-01-17T10:59:23.967Z,98316
2018-01-17T11:00:28.837Z,98318
2018-01-17T11:01:34.070Z,98312
2018-01-17T11:02:39.270Z,98315
2018-01-17T11:03:44.911Z,98318
2018-01-17T11:04:50.105Z,98318
2018-01-17T11:05:55.776Z,98324
2018-01-17T11:07:01.236Z,98329
2018-01-17T11:08:06.636Z,98326
2018-01-17T11:09:11.816Z,98335
2018-01-17T11:10:14.871Z,98329
2018-01-17T11:11:20.297Z,98335
2018-01-17T11:12:26.278Z,98335
2018-01-17T11:13:27.343Z,98335
2018-01-17T11:14:32.825Z,98332
2018-01-17T11:15:38.651Z,98332
2018-01-17T11:16:44.130Z,98332
2018-01-17T11:17:49.290Z,98332
2018-01-17T11:18:54.771Z,98324
2018-01-17T11:20:00.259Z,98326
2018-01-17T11:21:05.159Z,98329
2018-01-17T11:22:09.453Z,98340
2018-01-17T11:23:14.836Z,98337
2018-01-17T11:24:20.029Z,98338
2018-01-17T11:25:40.117Z,98330
2018-01-17T11:26:45.785Z,98335
2018-01-17T11:27:51.518Z,98343
2018-01-17T11:28:56.684Z,98343
2018-01-17T11:30:02.168Z,98338
2018-01-17T11:31:07.413Z,98346
2018-01-17T11:32:12.911Z,98335
2018-01-17T11:33:18.783Z,98333
2018-01-17T11:34:24.640Z,98330
2018-01-17T11:35:29.728Z,98337
2018-01-17T11:36:35.293Z,98343
2018-01-17T11:37:40.460Z,98337
2018-01-17T11:38:45.641Z,98337
2018-01-17T11:39:50.471Z,98346
2018-01-17T11:40:55.943Z,98346
2018-01-17T11:42:01.124Z,98363
2018-01-17T11:43:06.565Z,98355
2018-01-17T11:44:12.008Z,98337
2018-01-17T11:45:17.815Z,98352
2018-01-17T11:46:23.253Z,98352
2018-01-17T11:47:28.465Z,98358
2018-01-17T11:48:33.945Z,98346
2018-01-17T11:49:39.421Z,98346
2018-01-17T11:50:44.620Z,98337
2018-01-17T11:51:50.084Z,98335
2018-01-17T11:52:54.980Z,98340
2018-01-17T11:54:00.673Z,98340
2018-01-17T11:55:05.699Z,98346
2018-01-17T11:56:11.161Z,98349
2018-01-17T11:57:16.645Z,98349
2018-01-17T11:58:22.107Z,98346
2018-01-17T11:59:27.284Z,98352
2018-01-17T12:00:33.488Z,98343
2018-01-17T12:01:38.451Z,98358
2018-01-17T12:02:43.896Z,98361
2018-01-17T12:03:49.709Z,98349
2018-01-17T12:04:54.996Z,98358
2018-01-17T12:06:00.178Z,98352
2018-01-17T12:07:05.716Z,98343
2018-01-17T12:08:10.606Z,98355
2018-01-17T12:09:16.138Z,98346
2018-01-17T12:10:21.953Z,98343
2018-01-17T12:11:27.420Z,98341
2018-01-17T12:12:32.965Z,98333
2018-01-17T12:13:38.627Z,98343
2018-01-17T12:14:44.086Z,98338
2018-01-17T12:15:49.520Z,98346
2018-01-17T12:16:54.135Z,98358
2018-01-17T12:17:59.587Z,98346
2018-01-17T12:19:05.530Z,98364
2018-01-17T12:20:10.693Z,98352
2018-01-17T12:21:15.600Z,98349
2018-01-17T12:22:21.074Z,98349
2018-01-17T12:23:26.580Z,98361
2018-01-17T12:24:32.408Z,98344
2018-01-17T12:25:37.943Z,98344
2018-01-17T12:26:43.137Z,98344
2018-01-17T12:27:48.966Z,98335
2018-01-17T12:28:54.495Z,98335
2018-01-17T12:29:59.713Z,98344
2018-01-17T12:31:05.159Z,98338
2018-01-17T12:32:10.639Z,98347
2018-01-17T12:33:15.833Z,98341
2018-01-17T12:34:20.991Z,98341
2018-01-17T12:35:26.162Z,98341
2018-01-17T12:36:31.923Z,98338
2018-01-17T12:37:37.108Z,98341
2018-01-17T12:38:42.290Z,98335
2018-01-17T12:39:47.270Z,98338
2018-01-17T12:40:52.189Z,98325
2018-01-17T12:41:57.562Z,98336
2018-01-17T12:43:03.015Z,98334
2018-01-17T12:44:08.477Z,98328
2018-01-17T12:45:13.943Z,98334
2018-01-17T12:46:19.744Z,98325
2018-01-17T12:47:24.930Z,98345
2018-01-17T12:48:30.634Z,98345
2018-01-17T12:49:36.304Z,98339
2018-01-17T12:50:41.193Z,98342
2018-01-17T12:51:47.005Z,98351
2018-01-17T12:52:52.183Z,98348
2018-01-17T12:53:57.664Z,98345
2018-01-17T12:55:03.494Z,98345
2018-01-17T12:56:08.655Z,98342
2018-01-17T12:57:13.772Z,98345
2018-01-17T12:58:19.613Z,98348
2018-01-17T12:59:25.062Z,98342
2018-01-17T13:00:30.090Z,98345
2018-01-17T13:01:35.720Z,98339
2018-01-17T13:02:40.881Z,98342
2018-01-17T13:03:46.384Z,98345
2018-01-17T13:04:51.871Z,98345
2018-01-17T13:05:57.376Z,98339
2018-01-17T13:07:02.616Z,98336
2018-01-17T13:08:07.849Z,98345
2018-01-17T13:09:13.342Z,98348
2018-01-17T13:10:18.814Z,98353
2018-01-17T13:11:24.686Z,98345
2018-01-17T13:12:30.489Z,98342
2018-01-17T13:13:35.692Z,98354
2018-01-17T13:14:41.101Z,98345
2018-01-17T13:15:46.616Z,98354
2018-01-17T13:16:51.532Z,98342
2018-01-17T13:17:56.139Z,98353
2018-01-17T13:19:01.879Z,98356
2018-01-17T13:20:06.521Z,98353
2018-01-17T13:21:11.710Z,98348
2018-01-17T13:22:17.491Z,98342
2018-01-17T13:23:23.130Z,98345
2018-01-17T13:24:28.944Z,98342
2018-01-17T13:25:34.130Z,98345
2018-01-17T13:26:39.318Z,98345
2018-01-17T13:27:45.062Z,98359
2018-01-17T13:28:50.267Z,98348
2018-01-17T13:29:55.476Z,98339
2018-01-17T13:31:00.961Z,98339
2018-01-17T13:32:06.207Z,98348
2018-01-17T13:33:11.415Z,98357
2018-01-17T13:34:16.789Z,98362
2018-01-17T13:35:21.981Z,98363
2018-01-17T13:36:27.770Z,98351
2018-01-17T13:37:33.253Z,98357
2018-01-17T13:38:38.882Z,98345
2018-01-17T13:39:44.065Z,98351
2018-01-17T13:40:49.570Z,98348
2018-01-17T13:41:54.459Z,98339
2018-01-17T13:42:59.978Z,98339
2018-01-17T13:44:05.473Z,98348
2018-01-17T13:45:10.144Z,98339
2018-01-17T13:46:14.892Z,98336
2018-01-17T13:47:20.509Z,98348
2018-01-17T13:48:40.318Z,98342
2018-01-17T13:49:45.804Z,98348
2018-01-17T13:50:51.268Z,98332
2018-01-17T13:51:56.474Z,98335
2018-01-17T13:53:01.921Z,98332
2018-01-17T13:54:07.105Z,98342
2018-01-17T13:55:12.527Z,98337
2018-01-17T13:56:17.723Z,98342
2018-01-17T13:57:22.639Z,98354
2018-01-17T13:58:27.496Z,98340
2018-01-17T13:59:32.708Z,98335
2018-01-17T14:00:38.574Z,98343
2018-01-17T14:01:44.034Z,98351
2018-01-17T14:02:49.161Z,98340
2018-01-17T14:03:54.628Z,98345